Deming Municipal Airport
KDMN : now visible

Airfield :











YOU CAN JOIN US ON...

 
LOGIN :

Register | Disclaimer

   EN    FR    IT 

 









Legend :    VFR   Marginal VFR   IFR   Intensive IFR   Very Intensive IFR
Visi :
Ceiling :
>= 8 km
>= 3000ft
5 to 8 km
1000 to 3000 ft
1500m to 5 km
500 to 1000 ft
800 to 1500m
200 to 500 ft
< 800m
< 200 ft
Symbols :   Thunderstorms  Fog  Heavy snow  Heavy precipitations  Wind > 20 kt






- Airport Elevation : 4314 ft


KDMN - Deming Municipal

CURRENT METAR :
  • 190853Z AUTO 32003KT 10SM CLR 19/M05 A2996 RMK AO2 SLP057 T01891050 58004

EXPIRED METARs :
  • 190753Z AUTO 34003KT 10SM CLR 22/M04 A2996 RMK AO2 SLP057 T02171044
  • 190653Z AUTO 31004KT 10SM CLR 23/M04 A2997 RMK AO2 SLP057 T02331044 403780161

TAF KDMN
Valid from the 19 at 06:00 until the 20 at 06:00 UTC


190535Z 1906/2006 19007KT P6SM SKC
FM192200 32012G22KT P6SM FEW150 BKN250
KZAB FIR / North America



MET'MAP, your aeronautical weather chart ! - Copyright ORBIFLY December 2007 - Disclaimer

ORBIFLY MET'MAP TEAM :

Programming & Development : Alexandra Zaïnal
Concept & original design : Baudouin d'Aumeries
Assistance for programming : Marc-Olivier Méhu
Technical & hardware support : Manuel Goepfert

Contact : metmap@orbifly.com




SOURCES & CREDITS :

   NOAA       Earth
Advisory